Time;durP1;ratioP1;P1;durP2;ratioP2;P2;SDS_P1;SDS_P2;PMS_P1;PMS_P2;Temp;Humidity;BMP_temperature;BMP_pressure;BME280_temperature;BME280_humidity;BME280_pressure;Samples;Min_cycle;Max_cycle;Signal;HPM_P1;HPM_P2
2024/03/19 00:00:24;;;;;;;581.47;541.37;;;8.70;99.90;;;;;;5072329;28;20450;-65
2024/03/19 00:02:51;;;;;;;584.40;544.00;;;8.70;99.90;;;;;;5080388;28;20486;-65
2024/03/19 00:05:18;;;;;;;579.73;540.13;;;8.80;99.90;;;;;;5080297;28;20462;-65
2024/03/19 00:07:44;;;;;;;548.73;511.60;;;8.80;99.90;;;;;;5071819;28;20458;-65
2024/03/19 00:10:12;;;;;;;536.47;500.07;;;8.70;99.90;;;;;;5072806;28;20465;-65
2024/03/19 00:12:39;;;;;;;548.20;510.63;;;8.80;99.90;;;;;;5073496;28;20897;-63
2024/03/19 00:15:09;;;;;;;561.07;521.43;;;8.80;99.90;;;;;;5073673;28;20455;-65
2024/03/19 00:17:36;;;;;;;532.20;495.27;;;8.80;99.90;;;;;;5073209;28;20450;-65
2024/03/19 00:20:05;;;;;;;532.10;495.30;;;8.80;99.90;;;;;;5073325;28;20508;-65
2024/03/19 00:22:32;;;;;;;531.40;495.60;;;8.80;99.90;;;;;;5081013;28;20454;-64
2024/03/19 00:24:59;;;;;;;530.30;493.00;;;8.80;99.90;;;;;;5080157;28;20863;-65
2024/03/19 00:27:25;;;;;;;541.93;504.13;;;8.80;99.90;;;;;;5072003;28;20458;-65
2024/03/19 00:29:52;;;;;;;529.90;492.60;;;8.80;99.90;;;;;;5079509;28;20845;-65
2024/03/19 00:32:20;;;;;;;531.17;493.17;;;8.80;99.90;;;;;;5072553;28;20461;-63
2024/03/19 00:34:48;;;;;;;543.90;506.47;;;8.80;99.90;;;;;;5078468;28;20450;-65
2024/03/19 00:37:15;;;;;;;532.37;495.63;;;8.80;99.90;;;;;;5072486;28;20972;-65
2024/03/19 00:39:41;;;;;;;521.23;483.27;;;8.70;99.90;;;;;;5080276;28;20462;-64
2024/03/19 00:42:08;;;;;;;519.53;480.80;;;8.60;99.90;;;;;;5079961;28;20969;-65
2024/03/19 00:44:35;;;;;;;550.90;511.60;;;8.60;99.90;;;;;;5076480;28;21027;-65
2024/03/19 00:47:03;;;;;;;573.07;531.73;;;8.40;99.90;;;;;;5082626;28;20460;-64
2024/03/19 00:49:31;;;;;;;607.63;563.43;;;8.20;99.90;;;;;;5076297;28;20453;-65
2024/03/19 00:51:57;;;;;;;621.70;574.87;;;8.30;99.90;;;;;;5075070;28;20454;-65
2024/03/19 00:54:26;;;;;;;648.90;601.10;;;8.20;99.90;;;;;;5080041;28;20841;-64
2024/03/19 00:56:52;;;;;;;666.33;617.90;;;8.10;99.90;;;;;;5071465;28;20537;-65
2024/03/19 00:59:19;;;;;;;703.57;653.00;;;8.00;99.90;;;;;;5071755;28;20458;-64
2024/03/19 01:01:46;;;;;;;698.77;647.07;;;8.00;99.90;;;;;;5079995;28;20946;-65
2024/03/19 01:04:13;;;;;;;734.87;680.90;;;7.90;99.90;;;;;;5071330;28;20478;-65
2024/03/19 01:06:41;;;;;;;748.10;694.60;;;7.80;99.90;;;;;;5071092;28;20831;-65
2024/03/19 01:09:12;;;;;;;739.83;686.63;;;7.90;99.90;;;;;;5071576;28;20473;-65
2024/03/19 01:11:39;;;;;;;784.17;729.17;;;7.80;99.90;;;;;;5077211;28;20454;-64
2024/03/19 01:14:05;;;;;;;772.60;716.93;;;8.00;99.90;;;;;;5082237;28;20476;-65
2024/03/19 01:16:32;;;;;;;773.90;719.63;;;8.10;99.90;;;;;;5075543;28;20457;-65
2024/03/19 01:18:59;;;;;;;774.47;720.67;;;8.20;99.90;;;;;;5074549;28;20912;-64
2024/03/19 01:21:26;;;;;;;743.97;690.97;;;8.20;99.90;;;;;;5071563;28;20457;-65
2024/03/19 01:23:56;;;;;;;705.93;655.27;;;8.30;99.90;;;;;;5071173;28;20531;-65
2024/03/19 01:26:23;;;;;;;701.30;651.43;;;8.30;99.90;;;;;;5070850;28;20454;-65
2024/03/19 01:28:50;;;;;;;685.27;635.70;;;8.30;99.90;;;;;;5078292;28;20456;-65
2024/03/19 01:31:17;;;;;;;671.30;622.10;;;8.20;99.90;;;;;;5080507;28;20456;-64
2024/03/19 01:33:43;;;;;;;684.47;634.80;;;8.10;99.90;;;;;;5070853;28;20474;-65
2024/03/19 01:36:10;;;;;;;686.17;635.93;;;8.10;99.90;;;;;;5079436;28;20454;-65
2024/03/19 01:38:37;;;;;;;710.73;659.07;;;8.00;99.90;;;;;;5073797;28;20484;-64
2024/03/19 01:41:06;;;;;;;705.10;653.60;;;8.00;99.90;;;;;;5074611;28;20458;-63
2024/03/19 01:43:33;;;;;;;696.63;645.33;;;8.00;99.90;;;;;;5082807;28;20527;-65
2024/03/19 01:46:19;;;;;;;706.37;655.10;;;8.00;99.90;;;;;;5074605;28;20979;-65
2024/03/19 01:48:46;;;;;;;718.50;666.60;;;7.90;99.90;;;;;;5080140;28;20484;-65
2024/03/19 01:51:14;;;;;;;725.50;672.90;;;7.90;99.90;;;;;;5082838;28;20831;-65
2024/03/19 01:53:41;;;;;;;741.07;688.23;;;7.90;99.90;;;;;;5074402;28;20560;-64
2024/03/19 01:56:10;;;;;;;731.13;677.83;;;7.90;99.90;;;;;;5074512;28;20454;-64
2024/03/19 01:58:38;;;;;;;735.07;682.17;;;7.90;99.90;;;;;;5079214;28;20472;-65
2024/03/19 02:01:05;;;;;;;744.07;691.00;;;7.90;99.90;;;;;;5085746;28;20834;-65
2024/03/19 02:03:32;;;;;;;756.03;704.43;;;7.90;99.90;;;;;;5074195;28;20509;-65
2024/03/19 02:05:59;;;;;;;743.07;691.40;;;7.80;99.90;;;;;;5074359;28;20454;-64
2024/03/19 02:08:26;;;;;;;736.40;684.83;;;7.80;99.90;;;;;;5073948;28;20457;-64
2024/03/19 02:10:54;;;;;;;754.07;702.00;;;7.80;99.90;;;;;;5082697;28;20442;-65
2024/03/19 02:13:22;;;;;;;768.33;713.03;;;7.70;99.90;;;;;;5082391;28;20478;-64
2024/03/19 02:15:50;;;;;;;783.30;727.90;;;7.90;99.90;;;;;;5083028;28;20458;-65
2024/03/19 02:18:16;;;;;;;766.27;712.33;;;7.70;99.90;;;;;;5082211;28;20450;-64
2024/03/19 02:20:43;;;;;;;755.70;702.40;;;7.70;99.90;;;;;;5073552;28;20461;-64
2024/03/19 02:23:11;;;;;;;758.63;704.33;;;7.60;99.90;;;;;;5075220;28;20479;-65
2024/03/19 02:25:38;;;;;;;795.13;738.80;;;7.60;99.90;;;;;;5085790;28;20468;-65
2024/03/19 02:28:05;;;;;;;792.50;734.20;;;7.60;99.90;;;;;;5084769;28;20554;-65
2024/03/19 02:30:32;;;;;;;782.80;725.17;;;7.70;99.90;;;;;;5082145;28;20454;-65
2024/03/19 02:32:59;;;;;;;782.37;724.90;;;7.70;99.90;;;;;;5082149;28;20466;-63
2024/03/19 02:35:26;;;;;;;775.03;717.30;;;7.80;99.90;;;;;;5073976;28;20442;-65
2024/03/19 02:37:52;;;;;;;771.73;714.50;;;7.80;99.90;;;;;;5081640;28;20446;-65
2024/03/19 02:40:20;;;;;;;758.47;702.57;;;7.90;99.90;;;;;;5076229;28;20459;-65
2024/03/19 02:42:47;;;;;;;754.17;698.27;;;7.90;99.90;;;;;;5078884;28;20477;-64
2024/03/19 02:45:14;;;;;;;746.40;691.80;;;7.90;99.90;;;;;;5073762;28;20492;-64
2024/03/19 02:47:41;;;;;;;751.07;697.47;;;7.90;99.90;;;;;;5079271;28;20518;-65
2024/03/19 02:50:08;;;;;;;755.00;701.50;;;7.90;99.90;;;;;;5075615;28;20456;-65
2024/03/19 02:52:35;;;;;;;743.80;691.17;;;7.90;99.90;;;;;;5081609;28;20457;-65
2024/03/19 02:55:02;;;;;;;735.17;682.07;;;7.90;99.90;;;;;;5073510;28;20454;-64
2024/03/19 02:57:30;;;;;;;741.77;689.23;;;7.90;99.90;;;;;;5077326;28;20453;-65
2024/03/19 02:59:57;;;;;;;737.13;684.43;;;8.00;99.90;;;;;;5085091;28;20949;-65
2024/03/19 03:02:24;;;;;;;742.37;690.57;;;8.00;99.90;;;;;;5073075;28;21008;-65
2024/03/19 03:04:51;;;;;;;711.87;660.37;;;8.00;99.90;;;;;;5073029;28;20992;-65
2024/03/19 03:07:17;;;;;;;730.63;679.23;;;8.00;99.90;;;;;;5072591;28;20455;-65
2024/03/19 03:09:44;;;;;;;699.13;648.30;;;8.00;99.90;;;;;;5081421;28;20454;-65
2024/03/19 03:12:11;;;;;;;702.30;652.70;;;8.10;99.90;;;;;;5073065;28;20454;-65
2024/03/19 03:14:39;;;;;;;690.30;640.50;;;8.10;99.90;;;;;;5081319;28;20855;-65
2024/03/19 03:17:08;;;;;;;675.17;625.17;;;8.10;99.90;;;;;;5072735;28;20450;-65
2024/03/19 03:19:35;;;;;;;675.10;625.80;;;8.10;99.90;;;;;;5072891;28;20461;-65
2024/03/19 03:22:02;;;;;;;680.03;630.90;;;8.20;99.90;;;;;;5081164;28;20454;-64
2024/03/19 03:24:30;;;;;;;672.60;623.33;;;8.20;99.90;;;;;;5082176;28;20482;-65
2024/03/19 03:26:57;;;;;;;660.07;610.90;;;8.20;99.90;;;;;;5084512;28;20887;-64
2024/03/19 03:29:25;;;;;;;670.00;621.07;;;8.20;99.90;;;;;;5075274;28;20545;-64
2024/03/19 03:31:53;;;;;;;644.43;596.53;;;8.20;99.90;;;;;;5081953;28;20529;-65
2024/03/19 03:34:21;;;;;;;632.97;585.83;;;8.20;99.90;;;;;;5080670;28;20501;-65
2024/03/19 03:36:47;;;;;;;626.20;579.70;;;8.20;99.90;;;;;;5079424;28;20460;-65
2024/03/19 03:39:14;;;;;;;635.40;589.30;;;8.30;99.90;;;;;;5076540;28;20460;-65
2024/03/19 03:41:42;;;;;;;625.80;581.33;;;8.30;99.90;;;;;;5085199;28;20829;-65
2024/03/19 03:44:09;;;;;;;620.00;575.30;;;8.30;99.90;;;;;;5074768;28;20679;-64
2024/03/19 03:46:35;;;;;;;616.60;572.47;;;8.30;99.90;;;;;;5077434;28;20473;-65
2024/03/19 03:49:04;;;;;;;613.70;569.77;;;8.30;99.90;;;;;;5075140;28;20602;-65
2024/03/19 03:51:30;;;;;;;617.17;573.17;;;8.30;99.90;;;;;;5076879;28;20460;-65
2024/03/19 03:53:58;;;;;;;623.73;580.20;;;8.20;99.90;;;;;;5075754;28;20557;-65
2024/03/19 03:56:24;;;;;;;601.93;559.50;;;8.20;99.90;;;;;;5080423;28;20446;-65
2024/03/19 03:58:51;;;;;;;594.73;553.27;;;8.20;99.90;;;;;;5080519;28;20874;-65
2024/03/19 04:01:18;;;;;;;583.70;541.30;;;8.20;99.90;;;;;;5080090;28;20812;-65
2024/03/19 04:03:46;;;;;;;592.47;549.80;;;8.10;99.90;;;;;;5071817;28;21021;-65
2024/03/19 04:06:14;;;;;;;591.33;548.10;;;8.10;99.90;;;;;;5074233;28;20808;-65
2024/03/19 04:08:41;;;;;;;605.30;560.50;;;8.00;99.90;;;;;;5078032;28;20456;-65
2024/03/19 04:11:10;;;;;;;608.93;564.33;;;7.90;99.90;;;;;;5080564;28;20458;-65
2024/03/19 04:13:36;;;;;;;591.30;549.13;;;7.80;99.90;;;;;;5077111;28;20512;-65
2024/03/19 04:16:04;;;;;;;599.17;555.63;;;7.70;99.90;;;;;;5083127;28;20450;-65
2024/03/19 04:18:31;;;;;;;610.07;564.67;;;7.70;99.90;;;;;;5080478;28;20464;-65
2024/03/19 04:20:57;;;;;;;621.03;575.23;;;7.60;99.90;;;;;;5080515;28;20975;-65
2024/03/19 04:23:25;;;;;;;628.20;581.50;;;7.50;99.90;;;;;;5071908;28;20520;-64
2024/03/19 04:25:52;;;;;;;637.23;588.93;;;7.40;99.90;;;;;;5071854;28;21020;-64
2024/03/19 04:28:19;;;;;;;627.63;579.17;;;7.40;99.90;;;;;;5079855;28;21994;-65
2024/03/19 04:30:46;;;;;;;628.20;579.30;;;7.50;99.90;;;;;;5071454;28;20910;-65
2024/03/19 04:33:13;;;;;;;637.87;588.80;;;7.50;99.90;;;;;;5082050;28;20474;-64
2024/03/19 04:35:40;;;;;;;630.43;581.73;;;7.40;99.90;;;;;;5078028;28;20461;-65
2024/03/19 04:38:07;;;;;;;635.67;585.63;;;7.40;99.90;;;;;;5071423;28;20450;-65
2024/03/19 04:40:35;;;;;;;639.43;588.53;;;7.50;99.90;;;;;;5071869;28;20458;-64
2024/03/19 04:43:02;;;;;;;649.63;598.33;;;7.50;99.90;;;;;;5071546;28;20478;-65
2024/03/19 04:45:29;;;;;;;642.10;591.73;;;7.50;99.90;;;;;;5071503;28;20489;-65
2024/03/19 04:47:55;;;;;;;622.00;572.43;;;7.50;99.90;;;;;;5071729;28;20524;-64
2024/03/19 04:50:23;;;;;;;625.80;575.70;;;7.50;99.90;;;;;;5080271;28;20450;-64
2024/03/19 04:52:50;;;;;;;647.70;597.07;;;7.50;99.90;;;;;;5080138;28;20478;-65
2024/03/19 04:55:17;;;;;;;661.17;608.73;;;7.50;99.90;;;;;;5071736;28;20544;-65
2024/03/19 04:57:45;;;;;;;650.87;598.40;;;7.40;99.90;;;;;;5071102;28;20942;-64
2024/03/19 05:00:16;;;;;;;628.70;577.30;;;7.50;99.90;;;;;;5071729;28;20838;-64
2024/03/19 05:02:43;;;;;;;630.17;578.70;;;7.50;99.90;;;;;;5079988;28;20470;-64
2024/03/19 05:05:11;;;;;;;644.13;592.10;;;7.50;99.90;;;;;;5079914;28;20853;-64
2024/03/19 05:07:37;;;;;;;655.23;603.67;;;7.40;99.90;;;;;;5071305;28;20825;-65
2024/03/19 05:10:05;;;;;;;663.10;609.87;;;7.40;99.90;;;;;;5071813;28;21048;-65
2024/03/19 05:12:32;;;;;;;670.53;616.87;;;7.30;99.90;;;;;;5073464;28;20464;-64
2024/03/19 05:15:00;;;;;;;687.93;634.63;;;7.30;99.90;;;;;;5075918;28;20451;-65
2024/03/19 05:17:27;;;;;;;714.40;659.13;;;7.20;99.90;;;;;;5079185;28;20959;-65
2024/03/19 05:19:54;;;;;;;722.83;667.13;;;7.20;99.90;;;;;;5079525;28;20458;-64
2024/03/19 05:22:21;;;;;;;744.80;688.33;;;7.10;99.90;;;;;;5083274;28;20461;-65
2024/03/19 05:24:47;;;;;;;754.80;697.57;;;7.10;99.90;;;;;;5083157;28;20474;-64
2024/03/19 05:27:14;;;;;;;723.33;667.23;;;7.10;99.90;;;;;;5076921;28;20446;-65
2024/03/19 05:29:41;;;;;;;748.70;691.57;;;7.10;99.90;;;;;;5081212;28;20458;-65
2024/03/19 05:32:09;;;;;;;730.13;673.17;;;7.00;99.90;;;;;;5075001;28;20454;-64
2024/03/19 05:34:36;;;;;;;755.63;697.00;;;7.00;99.90;;;;;;5083289;28;20543;-65
2024/03/19 05:37:03;;;;;;;753.87;694.97;;;6.90;99.90;;;;;;5074637;28;20460;-65
2024/03/19 05:39:30;;;;;;;779.33;718.37;;;6.80;99.90;;;;;;5074831;28;20454;-64
2024/03/19 05:41:57;;;;;;;748.10;687.50;;;6.80;99.90;;;;;;5075355;28;20458;-65
2024/03/19 05:44:24;;;;;;;768.33;708.70;;;6.80;99.90;;;;;;5086506;28;20475;-65
2024/03/19 05:46:51;;;;;;;784.87;723.70;;;6.80;99.90;;;;;;5079209;28;20458;-65
2024/03/19 05:49:20;;;;;;;762.33;700.97;;;6.80;99.90;;;;;;5082977;28;20449;-65
2024/03/19 05:51:47;;;;;;;751.00;689.13;;;6.80;99.90;;;;;;5080911;28;20457;-63
2024/03/19 05:54:14;;;;;;;782.07;719.43;;;6.80;99.90;;;;;;5084248;28;20480;-64
2024/03/19 05:56:40;;;;;;;791.13;728.33;;;6.80;99.90;;;;;;5079954;28;20453;-65
2024/03/19 05:59:07;;;;;;;792.77;729.03;;;6.80;99.90;;;;;;5077547;28;20450;-64
2024/03/19 06:01:34;;;;;;;809.87;745.63;;;6.80;99.90;;;;;;5075186;28;20937;-65
2024/03/19 06:04:01;;;;;;;796.93;732.30;;;7.00;99.90;;;;;;5084666;28;20466;-64
2024/03/19 06:06:30;;;;;;;807.07;741.77;;;7.10;99.90;;;;;;5082825;28;20482;-65
2024/03/19 06:08:57;;;;;;;796.67;730.93;;;7.20;99.90;;;;;;5075215;28;20454;-65
2024/03/19 06:11:24;;;;;;;794.00;728.60;;;7.30;99.90;;;;;;5086615;28;20453;-65
2024/03/19 06:13:51;;;;;;;792.10;727.50;;;7.40;99.90;;;;;;5079229;28;20532;-65
2024/03/19 06:16:18;;;;;;;782.97;718.87;;;7.40;99.90;;;;;;5082927;28;20482;-64
2024/03/19 06:18:44;;;;;;;792.47;728.67;;;7.50;99.90;;;;;;5074642;28;20457;-64
2024/03/19 06:21:11;;;;;;;786.67;723.17;;;7.50;99.90;;;;;;5084389;28;20455;-65
2024/03/19 06:23:39;;;;;;;799.33;734.97;;;7.60;99.90;;;;;;5080250;28;21020;-64
2024/03/19 06:26:06;;;;;;;795.17;730.70;;;7.70;99.90;;;;;;5074011;28;20568;-65
2024/03/19 06:28:34;;;;;;;807.63;742.40;;;7.80;99.90;;;;;;5081964;28;20458;-64
2024/03/19 06:31:00;;;;;;;813.17;746.93;;;8.00;99.90;;;;;;5082064;28;20851;-64
2024/03/19 06:33:27;;;;;;;807.60;744.20;;;8.20;99.90;;;;;;5073383;28;20524;-65
2024/03/19 06:35:56;;;;;;;810.17;747.10;;;8.30;99.90;;;;;;5072975;28;20450;-65
2024/03/19 06:38:23;;;;;;;785.70;726.00;;;8.50;99.90;;;;;;5084819;28;20540;-65
2024/03/19 06:40:53;;;;;;;786.90;728.90;;;8.60;99.90;;;;;;5085529;28;20457;-65
2024/03/19 06:43:20;;;;;;;765.53;711.37;;;8.70;99.90;;;;;;5073937;28;20568;-65
2024/03/19 06:45:47;;;;;;;728.43;677.93;;;8.70;99.90;;;;;;5080019;28;20527;-64
2024/03/19 06:48:14;;;;;;;708.50;661.00;;;8.80;99.90;;;;;;5074237;28;20484;-65
2024/03/19 06:50:41;;;;;;;663.70;620.80;;;8.80;99.90;;;;;;5079150;28;20485;-64
2024/03/19 06:53:08;;;;;;;659.90;618.80;;;8.90;99.90;;;;;;5084127;28;20465;-65
2024/03/19 06:55:35;;;;;;;618.57;581.43;;;9.00;99.90;;;;;;5081984;28;20457;-65
2024/03/19 06:58:03;;;;;;;571.63;537.57;;;9.00;99.90;;;;;;5073228;28;20450;-65
2024/03/19 07:00:32;;;;;;;536.10;504.00;;;9.10;99.90;;;;;;5085088;28;20453;-65
2024/03/19 07:02:59;;;;;;;493.67;465.20;;;9.10;99.90;;;;;;5086202;28;20474;-64
2024/03/19 07:05:28;;;;;;;461.07;435.47;;;9.20;99.90;;;;;;5073146;28;20510;-64
2024/03/19 07:07:58;;;;;;;439.40;415.50;;;9.20;99.90;;;;;;5082096;28;20878;-65
2024/03/19 07:10:28;;;;;;;417.03;395.13;;;9.30;99.90;;;;;;5073612;28;20508;-65
2024/03/19 07:12:55;;;;;;;404.77;383.97;;;9.30;99.90;;;;;;5073203;28;20553;-65
2024/03/19 07:15:23;;;;;;;400.80;379.50;;;9.40;99.90;;;;;;5072965;28;20499;-65
2024/03/19 07:17:52;;;;;;;397.17;376.17;;;9.50;99.90;;;;;;5080216;28;20443;-65
2024/03/19 07:20:19;;;;;;;393.87;374.40;;;9.50;99.90;;;;;;5080653;28;20452;-65
2024/03/19 07:22:48;;;;;;;395.60;375.87;;;9.60;99.90;;;;;;5079261;28;20470;-65
2024/03/19 07:25:15;;;;;;;390.40;370.90;;;9.70;99.90;;;;;;5073819;28;20482;-64
2024/03/19 07:27:43;;;;;;;393.30;375.20;;;9.80;99.90;;;;;;5077868;28;20510;-65
2024/03/19 07:30:12;;;;;;;367.73;350.83;;;9.80;99.90;;;;;;5082917;28;20526;-65
2024/03/19 07:32:40;;;;;;;348.43;332.80;;;9.90;99.90;;;;;;5080965;28;20700;-65
2024/03/19 07:35:09;;;;;;;347.63;332.83;;;9.90;99.90;;;;;;5072184;28;20529;-64
2024/03/19 07:37:36;;;;;;;325.97;312.17;;;10.00;99.90;;;;;;5080852;28;20533;-64
2024/03/19 07:40:04;;;;;;;328.83;314.83;;;10.10;99.90;;;;;;5080499;28;20454;-65
2024/03/19 07:42:31;;;;;;;341.97;327.20;;;10.10;99.90;;;;;;5080968;28;20504;-65
2024/03/19 07:44:58;;;;;;;348.70;333.83;;;10.20;99.90;;;;;;5080804;28;20854;-65
2024/03/19 07:47:24;;;;;;;279.50;268.30;;;10.30;99.90;;;;;;5080827;28;20454;-65
2024/03/19 07:49:53;;;;;;;296.57;283.87;;;10.30;99.90;;;;;;5074378;28;20463;-65
2024/03/19 07:52:19;;;;;;;304.67;292.17;;;10.30;99.90;;;;;;5080321;28;21168;-64
2024/03/19 07:54:46;;;;;;;317.05;303.67;;;10.30;99.90;;;;;;5079480;28;20446;-65
2024/03/19 07:57:13;;;;;;;369.42;353.15;;;10.40;99.90;;;;;;5079154;28;20457;-65
2024/03/19 07:59:40;;;;;;;318.60;305.77;;;10.40;99.90;;;;;;5071938;28;20200;-65
2024/03/19 08:02:08;;;;;;;276.03;264.33;;;10.50;99.90;;;;;;5079739;28;20457;-64
2024/03/19 08:04:35;;;;;;;276.60;265.77;;;10.60;99.90;;;;;;5079763;28;20524;-65
2024/03/19 08:07:03;;;;;;;274.53;263.80;;;10.60;99.90;;;;;;5080193;28;20477;-64
2024/03/19 08:09:30;;;;;;;274.70;263.57;;;10.70;99.90;;;;;;5075746;28;20547;-65
2024/03/19 08:12:00;;;;;;;274.00;262.53;;;10.70;99.90;;;;;;5084650;28;20449;-64
2024/03/19 08:14:28;;;;;;;255.67;245.40;;;10.80;99.90;;;;;;5072783;28;20519;-65
2024/03/19 08:16:55;;;;;;;229.03;219.97;;;10.90;99.90;;;;;;5072512;28;20836;-65
2024/03/19 08:19:21;;;;;;;190.00;182.10;;;10.90;99.90;;;;;;5072275;28;21017;-65
2024/03/19 08:21:48;;;;;;;167.43;160.40;;;11.00;99.90;;;;;;5072244;28;20452;-65
2024/03/19 08:24:17;;;;;;;174.47;166.97;;;11.00;99.90;;;;;;5072172;28;20527;-65
2024/03/19 08:26:44;;;;;;;160.50;153.73;;;11.10;99.90;;;;;;5080783;28;20523;-65
2024/03/19 08:29:11;;;;;;;155.37;148.43;;;11.10;99.90;;;;;;5073069;28;20458;-65
2024/03/19 08:31:38;;;;;;;178.43;171.03;;;11.10;99.90;;;;;;5072784;28;20455;-65
2024/03/19 08:34:05;;;;;;;151.40;145.30;;;11.20;99.90;;;;;;5080742;28;20989;-65
2024/03/19 08:36:32;;;;;;;101.73;97.13;;;11.30;99.90;;;;;;5079696;28;20450;-65
2024/03/19 08:38:59;;;;;;;127.47;121.97;;;11.30;99.90;;;;;;5080966;28;20462;-64
2024/03/19 08:41:28;;;;;;;114.27;108.77;;;11.50;99.90;;;;;;5080708;28;20447;-65
2024/03/19 08:43:56;;;;;;;87.63;83.43;;;11.50;99.90;;;;;;5072943;28;20466;-65
2024/03/19 08:46:23;;;;;;;64.40;60.90;;;11.70;99.90;;;;;;5076531;28;20485;-65
2024/03/19 08:48:50;;;;;;;60.03;56.60;;;11.90;99.90;;;;;;5087721;28;20446;-65
2024/03/19 08:51:17;;;;;;;57.53;54.10;;;12.10;99.90;;;;;;5085355;28;20449;-65
2024/03/19 08:53:44;;;;;;;40.67;37.90;;;12.40;99.90;;;;;;5075922;28;20474;-65
2024/03/19 08:56:10;;;;;;;28.20;25.57;;;12.80;99.90;;;;;;5077223;28;20450;-65
2024/03/19 08:58:39;;;;;;;24.70;15.87;;;13.20;99.90;;;;;;5087259;28;20453;-65
2024/03/19 09:01:06;;;;;;;17.83;12.63;;;13.50;99.90;;;;;;5078085;28;20946;-65
2024/03/19 09:03:33;;;;;;;19.43;11.83;;;13.80;99.90;;;;;;5075211;28;20503;-65
2024/03/19 09:06:01;;;;;;;19.53;9.80;;;14.30;99.90;;;;;;5084003;28;20482;-65
2024/03/19 09:08:28;;;;;;;19.47;11.00;;;14.60;99.50;;;;;;5075299;28;20453;-65
2024/03/19 09:10:55;;;;;;;14.33;9.43;;;14.90;93.80;;;;;;5083352;28;20883;-63
2024/03/19 09:13:22;;;;;;;17.60;10.63;;;15.40;93.20;;;;;;5083997;28;20470;-63
2024/03/19 09:15:51;;;;;;;17.70;10.37;;;15.40;93.20;;;;;;5083934;28;20453;-63
2024/03/19 09:18:18;;;;;;;18.50;9.30;;;15.60;93.20;;;;;;5074739;28;20992;-63
2024/03/19 09:20:47;;;;;;;14.50;9.13;;;15.60;92.10;;;;;;5075757;28;20461;-63
2024/03/19 09:23:14;;;;;;;19.80;9.40;;;15.60;92.90;;;;;;5075381;28;20528;-63
2024/03/19 09:25:40;;;;;;;18.23;10.20;;;15.60;86.80;;;;;;5077908;28;20478;-63
2024/03/19 09:28:07;;;;;;;17.70;9.57;;;15.50;84.70;;;;;;5081265;28;20458;-63
2024/03/19 09:30:34;;;;;;;17.50;9.57;;;15.50;82.10;;;;;;5075420;28;20846;-63
2024/03/19 09:33:09;;;;;;;17.83;10.00;;;15.60;82.00;;;;;;5084267;28;20499;-63
2024/03/19 09:35:36;;;;;;;21.03;9.40;;;15.80;82.30;;;;;;5076726;28;20453;-62
2024/03/19 09:38:03;;;;;;;17.63;9.97;;;15.90;82.40;;;;;;5074923;28;20852;-63
2024/03/19 09:40:30;;;;;;;19.03;9.17;;;15.90;82.30;;;;;;5075104;28;20462;-63
2024/03/19 09:42:59;;;;;;;18.50;10.33;;;15.90;82.30;;;;;;5083380;28;20470;-63
2024/03/19 09:45:28;;;;;;;17.67;9.23;;;16.10;82.50;;;;;;5083167;28;20446;-63
2024/03/19 09:47:56;;;;;;;17.83;10.30;;;16.10;82.50;;;;;;5074467;28;20450;-62
2024/03/19 09:50:26;;;;;;;16.23;9.67;;;16.10;82.50;;;;;;5083328;28;20933;-63
2024/03/19 09:52:57;;;;;;;17.30;10.40;;;16.30;80.00;;;;;;5074461;28;20520;-63
2024/03/19 09:55:25;;;;;;;16.00;8.97;;;16.60;75.10;;;;;;5074623;28;20507;-63
2024/03/19 09:57:54;;;;;;;20.03;10.07;;;16.70;75.10;;;;;;5073463;28;20477;-63
2024/03/19 10:00:25;;;;;;;14.70;8.70;;;17.30;67.60;;;;;;5082795;28;20454;-63
2024/03/19 10:02:54;;;;;;;19.13;10.60;;;17.90;60.30;;;;;;5074704;28;20507;-63
2024/03/19 10:05:21;;;;;;;14.67;9.20;;;18.30;60.30;;;;;;5083061;28;20848;-62
2024/03/19 10:07:51;;;;;;;21.47;9.90;;;18.30;51.60;;;;;;5074205;28;20486;-63
2024/03/19 10:10:18;;;;;;;18.70;9.80;;;18.40;51.70;;;;;;5074181;28;20938;-63
2024/03/19 10:12:45;;;;;;;19.47;9.70;;;18.60;51.90;;;;;;5080734;28;20480;-63
2024/03/19 10:15:24;;;;;;;19.50;9.90;;;18.70;51.90;;;;;;5078072;28;20458;-63
2024/03/19 10:17:52;;;;;;;24.10;10.57;;;18.60;51.90;;;;;;5086035;28;20483;-63
2024/03/19 10:20:19;;;;;;;24.60;10.97;;;18.30;51.60;;;;;;5075600;28;20814;-63
2024/03/19 10:22:46;;;;;;;20.70;10.77;;;18.40;51.50;;;;;;5080785;28;20477;-63
2024/03/19 10:25:15;;;;;;;20.40;10.67;;;18.10;51.40;;;;;;5076193;28;20456;-63
2024/03/19 10:27:43;;;;;;;19.00;11.10;;;18.20;51.50;;;;;;5073878;28;20552;-63
2024/03/19 10:30:13;;;;;;;23.00;11.20;;;18.00;51.30;;;;;;5075533;28;20465;-63
2024/03/19 10:32:40;;;;;;;15.80;9.17;;;18.30;51.40;;;;;;5080502;28;20848;-63
2024/03/19 10:35:17;;;;;;;16.80;9.20;;;18.10;42.70;;;;;;5075611;28;20957;-63
2024/03/19 10:37:46;;;;;;;22.83;10.33;;;17.90;51.20;;;;;;5086470;28;20932;-63
2024/03/19 10:40:15;;;;;;;20.40;10.57;;;18.20;51.50;;;;;;5075445;28;20454;-63
2024/03/19 10:42:43;;;;;;;16.13;10.00;;;18.50;48.00;;;;;;5073737;28;20477;-63
2024/03/19 10:45:19;;;;;;;17.30;9.23;;;18.70;43.30;;;;;;5075178;28;20544;-63
2024/03/19 10:47:47;;;;;;;18.60;9.97;;;18.90;42.10;;;;;;5078614;28;20481;-63
2024/03/19 10:50:17;;;;;;;16.50;7.40;;;18.90;36.40;;;;;;5082100;28;20842;-63
2024/03/19 10:52:54;;;;;;;18.27;8.43;;;19.00;34.40;;;;;;5073470;28;20966;-63
2024/03/19 10:55:23;;;;;;;20.17;8.93;;;18.80;34.20;;;;;;5076624;28;20487;-63
2024/03/19 10:57:50;;;;;;;14.27;7.77;;;19.00;35.40;;;;;;5085177;28;20450;-63
2024/03/19 11:00:24;;;;;;;15.77;8.13;;;19.10;35.40;;;;;;5082532;28;20453;-63
2024/03/19 11:02:52;;;;;;;16.37;6.97;;;19.40;34.70;;;;;;5073679;28;20488;-64
2024/03/19 11:05:20;;;;;;;17.97;6.23;;;19.20;26.40;;;;;;5082185;28;20454;-63
2024/03/19 11:07:49;;;;;;;17.03;6.20;;;19.90;30.10;;;;;;5081328;28;21001;-64
2024/03/19 11:10:39;;;;;;;19.90;9.67;;;20.60;20.40;;;;;;5072121;28;20450;-63
2024/03/19 11:13:07;;;;;;;15.00;5.50;;;20.70;20.20;;;;;;5068576;28;20474;-63
2024/03/19 11:15:34;;;;;;;13.83;5.47;;;20.90;12.90;;;;;;5073474;28;20495;-62
2024/03/19 11:18:05;;;;;;;12.07;6.20;;;21.30;13.10;;;;;;5072687;28;20839;-63
2024/03/19 11:20:34;;;;;;;11.90;6.13;;;22.00;6.60;;;;;;5072963;28;20455;-63
2024/03/19 11:23:04;;;;;;;12.97;6.73;;;22.20;6.10;;;;;;5072644;28;20502;-62
2024/03/19 11:25:31;;;;;;;14.00;5.90;;;22.40;6.30;;;;;;5080747;28;20511;-64
2024/03/19 11:27:59;;;;;;;11.23;4.83;;;21.80;1.00;;;;;;5072450;28;20482;-63
2024/03/19 11:30:26;;;;;;;12.47;6.07;;;21.60;1.00;;;;;;5072574;28;20464;-63
2024/03/19 11:32:56;;;;;;;12.40;4.83;;;21.90;1.00;;;;;;5072909;28;20473;-63
2024/03/19 11:35:24;;;;;;;16.50;5.57;;;21.70;1.00;;;;;;5081497;28;20801;-63
2024/03/19 11:37:52;;;;;;;13.23;6.67;;;22.00;1.00;;;;;;5079413;28;20453;-63
2024/03/19 11:40:20;;;;;;;14.70;4.77;;;22.60;1.00;;;;;;5082014;28;20445;-63
2024/03/19 11:42:49;;;;;;;13.23;4.80;;;22.70;1.00;;;;;;5081142;28;20470;-63
2024/03/19 11:45:18;;;;;;;11.03;5.20;;;22.30;1.00;;;;;;5080790;28;20459;-65
2024/03/19 11:47:45;;;;;;;13.53;5.40;;;22.70;1.00;;;;;;5071950;28;20486;-65
2024/03/19 11:50:17;;;;;;;13.70;5.70;;;23.20;1.00;;;;;;5081246;28;20461;-65
2024/03/19 11:52:44;;;;;;;11.40;4.50;;;22.70;1.00;;;;;;5071947;28;21066;-64
2024/03/19 11:55:11;;;;;;;10.15;5.00;;;22.70;1.00;;;;;;5079200;28;20451;-65
2024/03/19 11:57:38;;;;;;;11.77;4.90;;;22.40;1.00;;;;;;5095271;28;20199;-64
2024/03/19 12:00:10;;;;;;;14.53;5.93;;;22.60;1.00;;;;;;5082914;28;20454;-66
2024/03/19 12:02:39;;;;;;;10.07;4.17;;;22.80;1.00;;;;;;5078783;28;20481;-65
2024/03/19 12:05:12;;;;;;;9.03;3.57;;;23.20;1.00;;;;;;5073038;28;20460;-64
2024/03/19 12:07:38;;;;;;;9.97;3.80;;;22.70;1.00;;;;;;5077679;28;20864;-66
2024/03/19 12:10:17;;;;;;;9.87;3.60;;;23.20;1.00;;;;;;5080334;28;20830;-66
2024/03/19 12:12:44;;;;;;;10.30;4.23;;;23.40;1.00;;;;;;5071876;28;20478;-65
2024/03/19 12:15:12;;;;;;;12.93;4.00;;;22.60;1.00;;;;;;5079326;28;20452;-66
2024/03/19 12:17:40;;;;;;;12.53;3.80;;;22.50;1.00;;;;;;5071263;28;20545;-65
2024/03/19 12:20:12;;;;;;;14.07;4.40;;;23.30;1.00;;;;;;5081234;28;20465;-66
2024/03/19 12:22:39;;;;;;;13.63;4.53;;;23.00;1.00;;;;;;5084067;28;20501;-65
2024/03/19 12:25:09;;;;;;;10.00;4.40;;;23.40;1.00;;;;;;5082995;28;20461;-65